createdAt,value
2022-09-20T00:00:43.939Z,98114.25
2022-09-20T00:03:10.155Z,98111.00
2022-09-20T00:05:36.434Z,98122.44
2022-09-20T00:08:02.762Z,98116.31
2022-09-20T00:10:28.938Z,98114.69
2022-09-20T00:12:55.483Z,98121.06
2022-09-20T00:15:21.725Z,98119.44
2022-09-20T00:17:47.919Z,98118.66
2022-09-20T00:20:14.142Z,98125.00
2022-09-20T00:22:40.320Z,98118.06
2022-09-20T00:25:06.586Z,98111.09
2022-09-20T00:27:33.478Z,98116.66
2022-09-20T00:30:00.292Z,98122.00
2022-09-20T00:32:26.492Z,98122.00
2022-09-20T00:34:52.713Z,98124.06
2022-09-20T00:37:19.003Z,98123.28
2022-09-20T00:39:45.208Z,98123.53
2022-09-20T00:42:11.496Z,98120.84
2022-09-20T00:44:37.695Z,98122.69
2022-09-20T00:47:03.924Z,98122.69
2022-09-20T00:49:47.518Z,98123.72
2022-09-20T00:52:13.879Z,98121.06
2022-09-20T00:54:40.344Z,98126.63
2022-09-20T00:57:06.525Z,98129.53
2022-09-20T00:59:32.705Z,98122.59
2022-09-20T01:01:58.972Z,98127.09
2022-09-20T01:04:25.243Z,98115.63
2022-09-20T01:06:51.513Z,98123.84
2022-09-20T01:09:17.693Z,98126.75
2022-09-20T01:11:43.911Z,98125.16
2022-09-20T01:14:10.096Z,98131.50
2022-09-20T01:16:36.401Z,98128.84
2022-09-20T01:19:02.686Z,98125.56
2022-09-20T01:21:29.190Z,98122.91
2022-09-20T01:23:55.530Z,98123.13
2022-09-20T01:26:22.220Z,98126.03
2022-09-20T01:28:50.511Z,98127.88
2022-09-20T01:31:17.381Z,98123.38
2022-09-20T01:33:43.663Z,98123.59
2022-09-20T01:36:10.022Z,98123.03
2022-09-20T01:38:36.241Z,98119.53
2022-09-20T01:41:02.536Z,98123.25
2022-09-20T01:43:28.957Z,98124.31
2022-09-20T01:45:55.224Z,98120.00
2022-09-20T01:48:21.603Z,98123.72
2022-09-20T01:50:47.803Z,98123.97
2022-09-20T01:53:14.071Z,98129.50
2022-09-20T01:55:40.316Z,98127.66
2022-09-20T01:58:06.508Z,98134.03
2022-09-20T02:00:33.306Z,98142.03
2022-09-20T02:02:59.814Z,98132.63
2022-09-20T02:05:26.381Z,98135.28
2022-09-20T02:07:52.597Z,98136.34
2022-09-20T02:10:18.791Z,98125.09
2022-09-20T02:12:44.986Z,98130.44
2022-09-20T02:15:11.168Z,98129.59
2022-09-20T02:17:37.409Z,98120.00
2022-09-20T02:20:03.584Z,98127.19
2022-09-20T02:22:30.184Z,98135.28
2022-09-20T02:24:56.433Z,98128.13
2022-09-20T02:27:22.637Z,98136.34
2022-09-20T02:29:48.850Z,98126.72
2022-09-20T02:32:15.305Z,98129.59
2022-09-20T02:34:41.584Z,98132.50
2022-09-20T02:37:07.865Z,98136.22
2022-09-20T02:39:34.143Z,98142.56
2022-09-20T02:42:00.515Z,98127.66
2022-09-20T02:44:26.706Z,98137.47
2022-09-20T02:46:52.894Z,98140.38
2022-09-20T02:49:19.122Z,98134.22
2022-09-20T02:51:45.592Z,98134.47
2022-09-20T02:54:12.349Z,98132.63
2022-09-20T02:56:38.835Z,98131.00
2022-09-20T02:59:05.810Z,98131.22
2022-09-20T03:01:32.530Z,98130.44
2022-09-20T03:04:00.615Z,98134.13
2022-09-20T03:06:29.460Z,98129.84
2022-09-20T03:08:55.756Z,98133.53
2022-09-20T03:11:22.034Z,98132.75
2022-09-20T03:13:48.508Z,98136.44
2022-09-20T03:16:14.764Z,98142.81
2022-09-20T03:18:41.073Z,98145.47
2022-09-20T03:21:07.229Z,98143.81
2022-09-20T03:23:33.544Z,98147.53
2022-09-20T03:26:00.037Z,98145.69
2022-09-20T03:28:29.309Z,98157.13
2022-09-20T03:30:55.696Z,98151.59
2022-09-20T03:33:21.915Z,98152.41
2022-09-20T03:35:48.224Z,98152.41
2022-09-20T03:38:14.408Z,98148.72
2022-09-20T03:40:44.192Z,98147.91
2022-09-20T03:43:12.763Z,98156.72
2022-09-20T03:45:39.114Z,98155.88
2022-09-20T03:48:05.787Z,98154.03
2022-09-20T03:50:32.744Z,98156.13
2022-09-20T03:52:58.949Z,98149.97
2022-09-20T03:55:25.279Z,98161.44
2022-09-20T03:57:51.463Z,98152.06
2022-09-20T04:00:17.829Z,98154.13
2022-09-20T04:02:44.093Z,98154.34
2022-09-20T04:05:10.316Z,98158.06
2022-09-20T04:07:36.511Z,98151.34
2022-09-20T04:10:03.173Z,98162.00
2022-09-20T04:12:29.362Z,98157.94
2022-09-20T04:14:55.829Z,98155.50
2022-09-20T04:17:22.068Z,98157.38
2022-09-20T04:19:48.294Z,98156.78
2022-09-20T04:22:14.595Z,98157.00
2022-09-20T04:24:40.769Z,98158.84
2022-09-20T04:27:06.979Z,98155.59
2022-09-20T04:29:33.267Z,98161.16
2022-09-20T04:31:59.576Z,98163.00
2022-09-20T04:34:26.340Z,98164.03
2022-09-20T04:36:52.546Z,98165.09
2022-09-20T04:39:18.857Z,98155.69
2022-09-20T04:41:45.123Z,98161.03
2022-09-20T04:44:11.382Z,98168.19
2022-09-20T04:46:37.565Z,98163.91
2022-09-20T04:49:03.782Z,98169.47
2022-09-20T04:51:32.177Z,98173.16
2022-09-20T04:53:58.706Z,98170.50
2022-09-20T04:56:25.240Z,98177.88
2022-09-20T04:58:51.479Z,98182.41
2022-09-20T05:01:17.744Z,98178.13
2022-09-20T05:03:44.292Z,98180.78
2022-09-20T05:06:10.516Z,98183.66
2022-09-20T05:08:37.198Z,98188.16
2022-09-20T05:11:03.451Z,98191.06
2022-09-20T05:13:29.673Z,98198.25
2022-09-20T05:15:55.886Z,98193.13
2022-09-20T05:18:22.286Z,98202.97
2022-09-20T05:20:48.552Z,98204.81
2022-09-20T05:23:14.758Z,98206.66
2022-09-20T05:25:41.044Z,98206.66
2022-09-20T05:28:07.677Z,98205.06
2022-09-20T05:30:33.972Z,98203.41
2022-09-20T05:33:00.193Z,98209.78
2022-09-20T05:35:27.093Z,98218.59
2022-09-20T05:37:53.481Z,98220.44
2022-09-20T05:40:20.207Z,98217.75
2022-09-20T05:42:46.468Z,98223.09
2022-09-20T05:45:12.697Z,98228.41
2022-09-20T05:47:39.387Z,98222.03
2022-09-20T05:50:06.121Z,98230.84
2022-09-20T05:52:32.346Z,98223.69
2022-09-20T05:54:58.532Z,98226.94
2022-09-20T05:57:24.704Z,98239.19
2022-09-20T05:59:51.699Z,98230.38
2022-09-20T06:02:18.020Z,98232.25
2022-09-20T06:04:44.261Z,98243.69
2022-09-20T06:07:10.448Z,98241.03
2022-09-20T06:09:38.237Z,98240.25
2022-09-20T06:12:04.487Z,98248.81
2022-09-20T06:14:30.777Z,98243.50
2022-09-20T06:16:57.019Z,98242.44
2022-09-20T06:19:23.269Z,98247.75
2022-09-20T06:21:49.871Z,98241.63
2022-09-20T06:24:16.179Z,98236.53
2022-09-20T06:26:42.430Z,98255.16
2022-09-20T06:29:09.162Z,98257.00
2022-09-20T06:31:35.521Z,98260.25
2022-09-20T06:34:01.689Z,98261.34
2022-09-20T06:36:28.220Z,98272.97
2022-09-20T06:38:55.541Z,98274.00
2022-09-20T06:41:22.219Z,98280.75
2022-09-20T06:43:48.546Z,98277.88
2022-09-20T06:46:14.904Z,98285.59
2022-09-20T06:48:41.658Z,98289.28
2022-09-20T06:51:07.889Z,98282.00
2022-09-20T06:53:34.132Z,98296.03
2022-09-20T06:56:00.597Z,98295.97
2022-09-20T06:58:26.826Z,98284.81
2022-09-20T07:00:53.338Z,98293.41
2022-09-20T07:03:19.765Z,98302.09
2022-09-20T07:05:46.025Z,98298.06
2022-09-20T07:08:12.342Z,98301.97
2022-09-20T07:10:38.845Z,98305.09
2022-09-20T07:13:05.081Z,98303.47
2022-09-20T07:15:32.707Z,98309.09
2022-09-20T07:17:59.641Z,98315.66
2022-09-20T07:20:26.204Z,98308.81
2022-09-20T07:22:55.090Z,98314.84
2022-09-20T07:25:24.172Z,98326.78
2022-09-20T07:27:50.477Z,98331.19
2022-09-20T07:30:18.372Z,98330.25
2022-09-20T07:32:45.110Z,98329.53
2022-09-20T07:35:11.337Z,98331.84
2022-09-20T07:37:38.616Z,98332.56
2022-09-20T07:40:05.032Z,98332.94
2022-09-20T07:42:31.339Z,98341.28
2022-09-20T07:44:57.640Z,98339.47
2022-09-20T07:47:23.931Z,98341.72
2022-09-20T07:49:50.140Z,98342.41
2022-09-20T07:52:16.415Z,98348.00
2022-09-20T07:54:50.280Z,98353.59
2022-09-20T07:57:16.705Z,98352.28
2022-09-20T08:00:30.911Z,98361.72
2022-09-20T08:02:32.566Z,98358.91
2022-09-20T08:04:58.952Z,98361.56
2022-09-20T08:07:25.543Z,98358.91
2022-09-20T08:09:51.799Z,98359.47
2022-09-20T08:15:06.521Z,98364.34
2022-09-20T08:17:36.009Z,98366.19
2022-09-20T08:20:02.445Z,98364.34
2022-09-20T08:22:28.696Z,98364.44
2022-09-20T08:24:55.256Z,98373.19
2022-09-20T08:30:05.670Z,98372.41
2022-09-20T08:32:32.079Z,98374.50
2022-09-20T08:34:58.514Z,98373.94
2022-09-20T08:37:24.770Z,98365.09
2022-09-20T08:39:59.616Z,98375.53
2022-09-20T08:42:26.237Z,98376.13
2022-09-20T08:44:59.985Z,98380.69
2022-09-20T08:47:26.515Z,98379.38
2022-09-20T08:49:56.736Z,98376.22
2022-09-20T08:52:23.505Z,98379.53
2022-09-20T08:54:49.765Z,98383.69
2022-09-20T08:57:16.347Z,98386.31
2022-09-20T08:59:42.898Z,98396.53
2022-09-20T09:02:09.138Z,98385.34
2022-09-20T09:04:35.529Z,98386.97
2022-09-20T09:07:03.340Z,98390.69
2022-09-20T09:09:29.678Z,98384.53
2022-09-20T09:11:55.939Z,98384.78
2022-09-20T09:14:22.320Z,98380.00
2022-09-20T09:16:48.753Z,98380.56
2022-09-20T09:19:16.469Z,98380.81
2022-09-20T09:21:48.803Z,98378.94
2022-09-20T09:24:15.123Z,98384.81
2022-09-20T09:26:41.420Z,98386.75
2022-09-20T09:29:08.877Z,98388.59
2022-09-20T09:31:45.913Z,98390.56
2022-09-20T09:34:12.322Z,98393.38
2022-09-20T09:36:42.209Z,98389.28
2022-09-20T09:39:08.511Z,98385.31
2022-09-20T09:41:34.797Z,98379.53
2022-09-20T09:44:01.009Z,98381.31
2022-09-20T09:46:27.353Z,98386.00
2022-09-20T09:48:53.943Z,98378.94
2022-09-20T09:51:20.452Z,98378.31
2022-09-20T09:53:53.989Z,98383.59
2022-09-20T09:56:25.112Z,98385.22
2022-09-20T09:58:51.604Z,98379.72
2022-09-20T10:01:29.949Z,98378.19
2022-09-20T10:04:06.323Z,98379.38
2022-09-20T10:06:32.694Z,98376.72
2022-09-20T10:08:59.080Z,98370.28
2022-09-20T10:11:25.499Z,98378.66
2022-09-20T10:13:51.787Z,98377.03
2022-09-20T10:16:18.086Z,98375.09
2022-09-20T10:18:44.432Z,98376.03
2022-09-20T10:21:10.705Z,98370.59
2022-09-20T10:24:01.983Z,98373.78
2022-09-20T10:26:24.759Z,98381.81
2022-09-20T10:28:51.096Z,98371.09
2022-09-20T10:31:23.471Z,98371.09
2022-09-20T10:33:51.891Z,98378.31
2022-09-20T10:36:22.871Z,98371.56
2022-09-20T10:38:49.135Z,98366.22
2022-09-20T10:41:15.451Z,98366.53
2022-09-20T10:43:41.698Z,98362.00
2022-09-20T10:46:30.841Z,98357.59
2022-09-20T10:48:54.590Z,98359.34
2022-09-20T10:51:20.882Z,98360.78
2022-09-20T10:53:47.141Z,98360.03
2022-09-20T10:56:13.531Z,98363.91
2022-09-20T10:58:39.952Z,98381.22
2022-09-20T11:01:07.440Z,98380.53
2022-09-20T11:03:34.054Z,98385.47
2022-09-20T11:06:00.403Z,98385.09
2022-09-20T11:08:26.597Z,98389.78
2022-09-20T11:10:53.845Z,98391.84
2022-09-20T11:13:20.482Z,98387.16
2022-09-20T11:15:46.806Z,98390.22
2022-09-20T11:18:13.224Z,98386.91
2022-09-20T11:20:39.587Z,98387.31
2022-09-20T11:23:05.884Z,98381.00
2022-09-20T11:25:32.257Z,98382.69
2022-09-20T11:27:58.527Z,98373.13
2022-09-20T11:30:24.966Z,98379.34
2022-09-20T11:32:51.428Z,98375.69
2022-09-20T11:35:17.906Z,98381.13
2022-09-20T11:37:44.300Z,98373.94
2022-09-20T11:40:10.705Z,98382.31
2022-09-20T11:42:37.003Z,98386.44
2022-09-20T11:45:03.599Z,98383.81
2022-09-20T11:47:54.052Z,98385.28
2022-09-20T11:50:16.723Z,98375.22
2022-09-20T11:52:44.345Z,98382.81
2022-09-20T11:55:12.041Z,98382.44
2022-09-20T11:57:38.558Z,98384.66
2022-09-20T12:00:06.295Z,98379.25
2022-09-20T12:02:34.748Z,98380.81
2022-09-20T12:05:01.433Z,98380.81
2022-09-20T12:07:36.414Z,98374.44
2022-09-20T12:10:02.808Z,98368.06
2022-09-20T12:12:30.249Z,98380.53
2022-09-20T12:14:59.031Z,98372.53
2022-09-20T12:17:25.921Z,98377.41
2022-09-20T12:19:52.176Z,98377.97
2022-09-20T12:22:18.504Z,98372.03
2022-09-20T12:24:45.722Z,98370.47
2022-09-20T12:27:12.395Z,98380.69
2022-09-20T12:29:38.622Z,98369.88
2022-09-20T12:32:04.955Z,98373.63
2022-09-20T12:34:31.683Z,98377.09
2022-09-20T12:36:57.932Z,98374.22
2022-09-20T12:39:28.903Z,98372.66
2022-09-20T12:41:56.429Z,98367.78
2022-09-20T12:44:22.780Z,98364.00
2022-09-20T12:46:49.116Z,98360.81
2022-09-20T12:49:15.349Z,98352.72
2022-09-20T12:51:41.680Z,98358.03
2022-09-20T12:54:09.369Z,98366.56
2022-09-20T12:56:35.636Z,98366.53
2022-09-20T12:59:02.006Z,98357.34
2022-09-20T13:01:28.562Z,98359.97
2022-09-20T13:03:54.794Z,98367.47
2022-09-20T13:06:21.095Z,98365.78
2022-09-20T13:08:47.545Z,98366.56
2022-09-20T13:11:14.140Z,98361.94
2022-09-20T13:13:40.473Z,98354.16
2022-09-20T13:16:07.333Z,98359.00
2022-09-20T13:18:35.303Z,98356.56
2022-09-20T13:21:01.556Z,98358.44
2022-09-20T13:23:27.797Z,98367.28
2022-09-20T13:25:54.070Z,98357.03
2022-09-20T13:28:21.376Z,98367.09
2022-09-20T13:30:47.997Z,98367.25
2022-09-20T13:33:14.259Z,98368.00
2022-09-20T13:35:40.447Z,98369.53
2022-09-20T13:38:06.669Z,98372.16
2022-09-20T13:40:32.954Z,98364.88
2022-09-20T13:43:22.224Z,98371.22
2022-09-20T13:45:45.480Z,98368.47
2022-09-20T13:48:11.746Z,98372.16
2022-09-20T13:50:40.967Z,98372.63
2022-09-20T13:53:09.653Z,98368.56
2022-09-20T13:55:35.917Z,98378.22
2022-09-20T13:58:03.428Z,98368.81
2022-09-20T14:00:29.765Z,98367.19
2022-09-20T14:02:56.089Z,98364.19
2022-09-20T14:05:22.426Z,98363.63
2022-09-20T14:07:48.762Z,98361.19
2022-09-20T14:10:14.985Z,98365.97
2022-09-20T14:12:41.219Z,98361.94
2022-09-20T14:15:07.472Z,98370.22
2022-09-20T14:17:33.827Z,98361.88
2022-09-20T14:20:00.138Z,98369.09
2022-09-20T14:22:26.819Z,98367.69
2022-09-20T14:24:53.186Z,98372.56
2022-09-20T14:27:19.401Z,98372.41
2022-09-20T14:29:46.539Z,98376.78
2022-09-20T14:32:12.799Z,98372.53
2022-09-20T14:34:39.075Z,98384.38
2022-09-20T14:37:05.255Z,98383.63
2022-09-20T14:39:31.909Z,98383.19
2022-09-20T14:41:58.114Z,98380.50
2022-09-20T14:44:24.327Z,98384.78
2022-09-20T14:46:50.586Z,98383.72
2022-09-20T14:49:16.823Z,98385.34
2022-09-20T14:51:43.038Z,98382.44
2022-09-20T14:54:09.432Z,98383.25
2022-09-20T14:56:35.844Z,98386.72
2022-09-20T14:59:02.030Z,98381.13
2022-09-20T15:01:28.368Z,98381.13
2022-09-20T15:03:54.725Z,98383.00
2022-09-20T15:06:21.045Z,98379.50
2022-09-20T15:08:47.254Z,98388.91
2022-09-20T15:11:13.653Z,98395.06
2022-09-20T15:13:39.845Z,98389.72
2022-09-20T15:16:06.084Z,98388.66
2022-09-20T15:18:32.815Z,98390.53
2022-09-20T15:20:59.025Z,98396.69
2022-09-20T15:23:25.291Z,98391.09
2022-09-20T15:25:51.568Z,98390.84
2022-09-20T15:28:17.917Z,98387.13
2022-09-20T15:30:44.161Z,98387.13
2022-09-20T15:33:10.374Z,98395.94
2022-09-20T15:35:37.212Z,98395.94
2022-09-20T15:38:03.606Z,98391.41
2022-09-20T15:40:29.915Z,98400.28
2022-09-20T15:42:56.154Z,98399.44
2022-09-20T15:45:22.373Z,98393.03
2022-09-20T15:47:48.631Z,98388.72
2022-09-20T15:50:15.057Z,98395.69
2022-09-20T15:52:41.586Z,98394.91
2022-09-20T15:55:07.847Z,98392.22
2022-09-20T15:57:34.070Z,98384.19
2022-09-20T16:00:00.361Z,98394.09
2022-09-20T16:02:26.652Z,98405.63
2022-09-20T16:04:54.925Z,98397.59
2022-09-20T16:07:21.168Z,98400.28
2022-09-20T16:09:47.391Z,98396.78
2022-09-20T16:12:13.743Z,98402.13
2022-09-20T16:14:40.149Z,98404.81
2022-09-20T16:17:06.445Z,98414.69
2022-09-20T16:19:32.705Z,98405.88
2022-09-20T16:21:59.500Z,98410.66
2022-09-20T16:24:25.780Z,98408.22
2022-09-20T16:26:51.979Z,98421.84
2022-09-20T16:29:18.199Z,98419.16
2022-09-20T16:31:44.784Z,98414.88
2022-09-20T16:34:11.085Z,98421.31
2022-09-20T16:36:37.308Z,98426.88
2022-09-20T16:39:03.507Z,98435.16
2022-09-20T16:41:29.696Z,98432.72
2022-09-20T16:43:55.994Z,98439.41
2022-09-20T16:46:22.851Z,98435.50
2022-09-20T16:48:49.121Z,98438.56
2022-09-20T16:51:15.653Z,98439.25
2022-09-20T16:53:41.841Z,98444.19
2022-09-20T16:56:08.073Z,98442.09
2022-09-20T16:58:34.816Z,98447.63
2022-09-20T17:01:01.552Z,98452.31
2022-09-20T17:03:28.114Z,98459.66
2022-09-20T17:05:54.457Z,98462.84
2022-09-20T17:08:20.745Z,98469.22
2022-09-20T17:10:46.975Z,98467.38
2022-09-20T17:13:13.227Z,98474.34
2022-09-20T17:15:39.553Z,98471.91
2022-09-20T17:18:05.737Z,98471.91
2022-09-20T17:20:31.927Z,98476.31
2022-09-20T17:22:58.324Z,98483.94
2022-09-20T17:25:24.552Z,98487.03
2022-09-20T17:27:50.841Z,98485.63
2022-09-20T17:30:17.048Z,98487.09
2022-09-20T17:32:43.261Z,98493.94
2022-09-20T17:35:09.675Z,98499.78
2022-09-20T17:37:37.953Z,98499.94
2022-09-20T17:40:04.424Z,98502.75
2022-09-20T17:42:30.752Z,98503.47
2022-09-20T17:44:57.022Z,98500.47
2022-09-20T17:47:24.775Z,98511.31
2022-09-20T17:49:51.104Z,98504.66
2022-09-20T17:52:17.717Z,98510.56
2022-09-20T17:54:44.069Z,98505.44
2022-09-20T17:57:10.312Z,98508.69
2022-09-20T17:59:36.597Z,98511.63
2022-09-20T18:02:02.826Z,98511.63
2022-09-20T18:04:29.073Z,98519.09
2022-09-20T18:06:55.354Z,98518.75
2022-09-20T18:09:21.631Z,98521.09
2022-09-20T18:11:47.964Z,98527.44
2022-09-20T18:14:14.555Z,98538.88
2022-09-20T18:16:43.894Z,98536.13
2022-09-20T18:19:10.109Z,98539.31
2022-09-20T18:21:36.332Z,98549.94
2022-09-20T18:24:02.554Z,98555.53
2022-09-20T18:26:29.105Z,98556.25
2022-09-20T18:28:55.599Z,98553.00
2022-09-20T18:31:21.903Z,98560.47
2022-09-20T18:33:48.352Z,98554.81
2022-09-20T18:36:14.757Z,98560.38
2022-09-20T18:38:41.230Z,98570.53
2022-09-20T18:41:07.528Z,98564.59
2022-09-20T18:43:33.808Z,98569.88
2022-09-20T18:46:00.077Z,98573.84
2022-09-20T18:48:30.334Z,98569.75
2022-09-20T18:50:56.604Z,98571.31
2022-09-20T18:53:25.869Z,98569.66
2022-09-20T18:55:52.118Z,98572.84
2022-09-20T18:58:18.512Z,98573.31
2022-09-20T19:00:44.892Z,98580.78
2022-09-20T19:03:11.439Z,98590.91
2022-09-20T19:05:37.693Z,98584.72
2022-09-20T19:08:03.963Z,98585.78
2022-09-20T19:10:30.894Z,98592.22
2022-09-20T19:12:59.068Z,98595.09
2022-09-20T19:15:25.298Z,98592.66
2022-09-20T19:17:51.488Z,98593.97
2022-09-20T19:20:17.742Z,98602.41
2022-09-20T19:22:44.959Z,98601.06
2022-09-20T19:25:11.290Z,98612.25
2022-09-20T19:27:39.674Z,98609.78
2022-09-20T19:30:05.955Z,98612.69
2022-09-20T19:32:32.211Z,98612.34
2022-09-20T19:34:58.471Z,98612.59
2022-09-20T19:37:24.865Z,98617.38
2022-09-20T19:39:51.190Z,98613.31
2022-09-20T19:42:17.417Z,98612.72
2022-09-20T19:44:43.667Z,98614.81
2022-09-20T19:47:09.888Z,98621.25
2022-09-20T19:49:36.171Z,98626.00
2022-09-20T19:52:02.420Z,98631.00
2022-09-20T19:54:28.623Z,98634.97
2022-09-20T19:56:54.841Z,98628.00
2022-09-20T19:59:21.358Z,98637.53
2022-09-20T20:01:47.632Z,98636.94
2022-09-20T20:04:13.960Z,98642.53
2022-09-20T20:06:41.308Z,98638.47
2022-09-20T20:09:07.603Z,98646.72
2022-09-20T20:11:34.008Z,98645.34
2022-09-20T20:14:00.610Z,98645.56
2022-09-20T20:16:26.861Z,98651.16
2022-09-20T20:18:53.188Z,98647.66
2022-09-20T20:21:19.508Z,98644.41
2022-09-20T20:23:45.717Z,98655.34
2022-09-20T20:26:11.954Z,98657.19
2022-09-20T20:28:38.221Z,98657.44
2022-09-20T20:31:05.855Z,98650.72
2022-09-20T20:33:32.097Z,98648.25
2022-09-20T20:35:58.339Z,98661.06
2022-09-20T20:38:25.134Z,98663.94
2022-09-20T20:40:51.445Z,98659.88
2022-09-20T20:43:17.681Z,98663.81
2022-09-20T20:45:43.937Z,98665.91
2022-09-20T20:48:10.266Z,98675.22
2022-09-20T20:50:36.559Z,98672.78
2022-09-20T20:53:02.782Z,98673.00
2022-09-20T20:55:29.052Z,98667.88
2022-09-20T20:57:55.347Z,98671.59
2022-09-20T21:00:21.931Z,98679.03
2022-09-20T21:02:48.169Z,98676.59
2022-09-20T21:05:14.371Z,98680.31
2022-09-20T21:07:40.577Z,98677.06
2022-09-20T21:10:10.711Z,98678.28
2022-09-20T21:12:36.993Z,98688.19
2022-09-20T21:15:03.205Z,98665.75
2022-09-20T21:17:33.899Z,98680.84
2022-09-20T21:20:02.213Z,98681.91
2022-09-20T21:22:28.411Z,98685.84
2022-09-20T21:24:54.633Z,98688.75
2022-09-20T21:27:20.862Z,98688.97
2022-09-20T21:29:47.072Z,98694.56
2022-09-20T21:32:13.348Z,98687.81
2022-09-20T21:34:39.572Z,98693.38
2022-09-20T21:37:05.847Z,98692.78
2022-09-20T21:39:32.119Z,98693.84
2022-09-20T21:41:58.340Z,98701.28
2022-09-20T21:44:24.575Z,98696.16
2022-09-20T21:46:50.791Z,98700.91
2022-09-20T21:49:20.052Z,98693.22
2022-09-20T21:51:46.676Z,98698.28
2022-09-20T21:54:13.006Z,98701.28
2022-09-20T21:56:39.200Z,98701.38
2022-09-20T21:59:05.607Z,98705.19
2022-09-20T22:01:31.847Z,98699.13
2022-09-20T22:03:58.511Z,98697.56
2022-09-20T22:06:24.764Z,98703.59
2022-09-20T22:08:50.926Z,98699.31
2022-09-20T22:11:17.268Z,98707.19
2022-09-20T22:13:43.646Z,98706.44
2022-09-20T22:16:10.020Z,98700.16
2022-09-20T22:18:36.292Z,98703.72
2022-09-20T22:21:03.538Z,98700.09
2022-09-20T22:23:29.718Z,98696.44
2022-09-20T22:25:56.034Z,98700.59
2022-09-20T22:28:22.760Z,98697.78
2022-09-20T22:30:49.004Z,98700.28
2022-09-20T22:33:15.246Z,98696.47
2022-09-20T22:35:41.498Z,98698.94
2022-09-20T22:38:07.743Z,98692.66
2022-09-20T22:40:33.964Z,98690.63
2022-09-20T22:43:00.590Z,98688.88
2022-09-20T22:45:26.832Z,98690.34
2022-09-20T22:47:53.070Z,98688.34
2022-09-20T22:50:19.265Z,98693.28
2022-09-20T22:52:45.562Z,98695.75
2022-09-20T22:55:11.859Z,98692.91
2022-09-20T22:57:39.762Z,98686.41
2022-09-20T23:00:06.092Z,98687.88
2022-09-20T23:02:32.378Z,98682.16
2022-09-20T23:04:58.884Z,98685.50
2022-09-20T23:09:53.418Z,98691.06
2022-09-20T23:12:19.635Z,98694.16
2022-09-20T23:14:45.834Z,98691.34
2022-09-20T23:17:12.061Z,98694.41
2022-09-20T23:19:38.482Z,98695.06
2022-09-20T23:22:04.952Z,98700.00
2022-09-20T23:24:31.136Z,98695.34
2022-09-20T23:26:57.364Z,98694.75
2022-09-20T23:29:23.589Z,98696.19
2022-09-20T23:31:49.811Z,98701.13
2022-09-20T23:34:16.395Z,98701.56
2022-09-20T23:36:42.582Z,98702.00
2022-09-20T23:39:08.802Z,98701.78
2022-09-20T23:41:34.989Z,98694.25
2022-09-20T23:44:01.361Z,98694.69
2022-09-20T23:46:27.575Z,98702.06
2022-09-20T23:48:53.847Z,98693.47
2022-09-20T23:51:20.235Z,98692.28
2022-09-20T23:53:46.474Z,98698.00
2022-09-20T23:56:12.689Z,98701.91
2022-09-20T23:58:41.935Z,98695.16
